Time;durP1;ratioP1;P1;durP2;ratioP2;P2;SDS_P1;SDS_P2;PMS_P1;PMS_P2;Temp;Humidity;BMP_temperature;BMP_pressure;BME280_temperature;BME280_humidity;BME280_pressure;Samples;Min_cycle;Max_cycle;Signal;HPM_P1;HPM_P2
2023/02/03 00:01:19;;;;;;;43.67;21.38;;;;;;;0.63;65.84;99075.25;5073800;28;20079;-56
2023/02/03 00:03:44;;;;;;;41.92;21.38;;;;;;;0.71;66.09;99104.66;5073593;28;20415;-56
2023/02/03 00:06:10;;;;;;;46.63;22.77;;;;;;;0.62;65.85;99077.97;5074051;28;20032;-56
2023/02/03 00:08:37;;;;;;;42.40;21.77;;;;;;;0.73;66.17;99095.84;5074598;28;20024;-52
2023/02/03 00:11:02;;;;;;;44.08;20.98;;;;;;;0.75;66.05;99100.09;5074007;28;20391;-52
2023/02/03 00:13:28;;;;;;;44.83;22.15;;;;;;;0.76;65.57;99095.69;5073651;28;20039;-57
2023/02/03 00:15:54;;;;;;;41.05;20.73;;;;;;;0.68;66.57;99093.44;5074255;28;20039;-57
2023/02/03 00:18:20;;;;;;;43.65;22.55;;;;;;;0.74;66.14;99094.94;5073783;28;20043;-52
2023/02/03 00:20:45;;;;;;;41.08;21.73;;;;;;;0.75;66.06;99109.81;5073685;28;20024;-56
2023/02/03 00:23:11;;;;;;;43.17;21.73;;;;;;;0.79;66.10;99109.53;5074018;28;20063;-57
2023/02/03 00:25:37;;;;;;;43.80;22.25;;;;;;;0.76;66.20;99107.06;5073943;28;20115;-55
2023/02/03 00:28:04;;;;;;;41.88;20.52;;;;;;;0.80;65.49;99098.06;5073276;28;20024;-53
2023/02/03 00:30:30;;;;;;;42.40;20.67;;;;;;;0.81;65.63;99105.03;5073138;28;20044;-56
2023/02/03 00:32:56;;;;;;;41.83;21.02;;;;;;;0.79;66.07;99111.34;5073796;28;20431;-53
2023/02/03 00:35:21;;;;;;;42.22;21.50;;;;;;;0.73;65.80;99101.97;5073257;28;20040;-54
2023/02/03 00:37:52;;;;;;;43.92;22.63;;;;;;;0.72;66.00;99089.72;5072893;28;20039;-54
2023/02/03 00:40:19;;;;;;;45.08;21.02;;;;;;;0.72;66.38;99100.25;5072809;28;20076;-52
2023/02/03 00:42:45;;;;;;;43.13;21.58;;;;;;;0.76;65.89;99103.59;5073310;28;20028;-54
2023/02/03 00:45:10;;;;;;;43.33;21.70;;;;;;;0.72;66.29;99092.34;5072951;28;20036;-56
2023/02/03 00:47:36;;;;;;;42.63;21.40;;;;;;;0.71;66.07;99099.41;5072785;28;20115;-54
2023/02/03 00:50:01;;;;;;;42.42;20.85;;;;;;;0.77;66.23;99107.94;5073067;28;20043;-58
2023/02/03 00:52:28;;;;;;;45.38;22.20;;;;;;;0.78;66.01;99093.84;5072843;28;20032;-56
2023/02/03 00:54:54;;;;;;;45.90;22.15;;;;;;;0.76;66.52;99100.97;5070802;28;20083;-58
2023/02/03 00:57:19;;;;;;;43.05;20.73;;;;;;;0.76;65.78;99090.44;5072661;28;20032;-55
2023/02/03 00:59:44;;;;;;;43.67;22.27;;;;;;;0.76;66.44;99093.06;5073187;28;20035;-52
2023/02/03 01:02:10;;;;;;;48.70;23.25;;;;;;;0.80;65.87;99103.34;5073235;28;20052;-58
2023/02/03 01:04:35;;;;;;;42.63;21.85;;;;;;;0.57;66.61;99065.88;5072639;28;20052;-54
2023/02/03 01:07:01;;;;;;;53.50;23.38;;;;;;;0.60;66.99;99074.53;5072708;28;20054;-59
2023/02/03 01:09:26;;;;;;;47.70;24.20;;;;;;;0.76;66.26;99085.16;5072814;28;20497;-52
2023/02/03 01:11:52;;;;;;;48.20;22.63;;;;;;;0.76;66.67;99090.44;5073051;28;20423;-53
2023/02/03 01:14:17;;;;;;;47.17;22.15;;;;;;;0.72;66.67;99095.00;5072529;28;20029;-56
2023/02/03 01:16:43;;;;;;;51.83;24.70;;;;;;;0.75;66.57;99084.28;5072836;28;20119;-53
2023/02/03 01:19:08;;;;;;;48.10;22.63;;;;;;;0.73;66.78;99085.31;5072634;28;20042;-54
2023/02/03 01:21:35;;;;;;;46.83;23.30;;;;;;;0.74;66.63;99087.03;5073139;28;20028;-56
2023/02/03 01:24:01;;;;;;;51.13;23.33;;;;;;;0.72;67.04;99100.25;5072527;28;20045;-55
2023/02/03 01:26:27;;;;;;;46.83;23.20;;;;;;;0.66;67.17;99079.50;5071459;28;20055;-58
2023/02/03 01:28:58;;;;;;;47.75;22.88;;;;;;;0.68;66.72;99072.38;5072615;28;20108;-57
2023/02/03 01:31:26;;;;;;;48.17;22.05;;;;;;;0.77;66.81;99082.44;5072941;28;20052;-55
2023/02/03 01:33:53;;;;;;;50.20;22.48;;;;;;;0.82;66.84;99085.66;5072061;28;20058;-51
2023/02/03 01:36:19;;;;;;;48.20;23.77;;;;;;;0.87;67.01;99100.41;5072459;28;20033;-53
2023/02/03 01:38:45;;;;;;;46.78;24.17;;;;;;;0.83;66.94;99083.91;5072344;28;20033;-56
2023/02/03 01:41:14;;;;;;;49.00;23.08;;;;;;;0.90;66.47;99095.81;5072208;28;20127;-55
2023/02/03 01:43:42;;;;;;;46.42;22.80;;;;;;;0.80;66.92;99084.06;5071592;28;20496;-56
2023/02/03 01:46:40;;;;;;;53.20;24.48;;;;;;;0.85;67.66;99088.16;5072582;28;20029;-57
2023/02/03 01:49:23;;;;;;;45.80;23.02;;;;;;;0.90;67.64;99087.06;5067717;28;20075;-54
2023/02/03 01:51:49;;;;;;;46.80;22.55;;;;;;;0.87;66.98;99088.06;5072079;28;20040;-55
2023/02/03 01:54:21;;;;;;;51.22;23.50;;;;;;;0.90;67.09;99095.81;5071814;28;20388;-55
2023/02/03 01:56:53;;;;;;;48.60;22.88;;;;;;;0.93;67.21;99077.19;5072351;28;20032;-54
2023/02/03 01:59:21;;;;;;;47.20;23.23;;;;;;;0.96;67.33;99087.56;5071586;28;20036;-52
2023/02/03 02:01:47;;;;;;;48.13;23.38;;;;;;;1.00;67.02;99086.50;5072308;28;20318;-54
2023/02/03 02:04:13;;;;;;;53.47;24.80;;;;;;;0.99;67.24;99076.91;5072509;28;20479;-54
2023/02/03 02:06:39;;;;;;;48.63;23.05;;;;;;;1.02;66.82;99072.38;5075168;28;20047;-55
2023/02/03 02:09:05;;;;;;;48.58;23.38;;;;;;;0.98;67.03;99075.19;5075882;28;20040;-57
2023/02/03 02:11:30;;;;;;;48.53;23.45;;;;;;;0.92;67.35;99072.84;5075554;28;20093;-58
2023/02/03 02:14:00;;;;;;;46.58;22.40;;;;;;;1.03;67.05;99079.38;5075993;28;20044;-54
2023/02/03 02:16:54;;;;;;;50.17;24.17;;;;;;;1.09;66.60;99082.53;5075517;28;20078;-55
2023/02/03 02:19:35;;;;;;;48.73;23.33;;;;;;;1.01;66.91;99079.44;5076042;28;20106;-52
2023/02/03 02:22:09;;;;;;;47.78;23.42;;;;;;;0.93;67.30;99074.56;5076135;28;20040;-56
2023/02/03 02:25:05;;;;;;;48.92;23.42;;;;;;;1.02;67.49;99075.84;5075865;28;20048;-55
2023/02/03 02:28:18;;;;;;;49.20;22.90;;;;;;;1.05;67.25;99074.84;5075761;28;20047;-58
2023/02/03 02:31:14;;;;;;;49.17;22.80;;;;;;;1.02;67.35;99075.84;5034169;28;20080;-55
2023/02/03 02:33:48;;;;;;;50.85;23.27;;;;;;;0.97;67.49;99070.84;5017098;28;20049;-57
2023/02/03 02:36:29;;;;;;;48.65;22.45;;;;;;;0.97;67.49;99068.22;5067447;28;20409;-54
2023/02/03 02:39:04;;;;;;;46.65;22.27;;;;;;;1.00;67.02;99069.81;5074619;28;20071;-53
2023/02/03 02:41:37;;;;;;;47.58;22.90;;;;;;;0.97;67.64;99060.31;5075402;28;20044;-56
2023/02/03 02:44:29;;;;;;;53.00;23.48;;;;;;;1.08;67.82;99064.16;5075612;28;20037;-56
2023/02/03 02:47:04;;;;;;;47.90;22.25;;;;;;;1.01;67.87;99063.63;5075682;28;20039;-57
2023/02/03 02:49:46;;;;;;;50.95;23.63;;;;;;;0.81;67.61;99027.78;5075309;28;20032;-56
2023/02/03 02:52:15;;;;;;;50.40;23.17;;;;;;;1.00;67.60;99062.78;5075277;28;20411;-55
2023/02/03 02:54:45;;;;;;;46.78;22.95;;;;;;;0.92;67.60;99054.41;5075071;28;20028;-57
2023/02/03 02:57:13;;;;;;;49.30;23.35;;;;;;;0.94;68.11;99063.09;5075682;28;20032;-53
2023/02/03 02:59:38;;;;;;;47.22;22.17;;;;;;;0.97;67.93;99060.31;5074823;28;20039;-55
2023/02/03 03:02:04;;;;;;;49.05;22.20;;;;;;;0.96;68.08;99061.22;5075239;28;20032;-56
2023/02/03 03:04:32;;;;;;;47.78;23.48;;;;;;;1.03;67.73;99060.91;5075023;28;20034;-52
2023/02/03 03:07:00;;;;;;;48.58;21.85;;;;;;;1.04;67.62;99062.63;5075385;28;20071;-57
2023/02/03 03:09:43;;;;;;;48.33;22.00;;;;;;;1.08;67.79;99064.97;5074445;28;20233;-54
2023/02/03 03:12:30;;;;;;;47.95;23.05;;;;;;;1.10;68.11;99057.88;5075053;28;20096;-54
2023/02/03 03:15:04;;;;;;;47.33;22.58;;;;;;;1.13;67.53;99052.41;5075076;28;20066;-55
2023/02/03 03:17:34;;;;;;;46.25;22.25;;;;;;;1.16;67.91;99056.66;5073829;28;20037;-52
2023/02/03 03:20:08;;;;;;;46.63;21.40;;;;;;;1.23;67.47;99063.31;5075117;28;20032;-53
2023/02/03 03:22:41;;;;;;;47.88;22.05;;;;;;;1.19;67.48;99061.75;5074432;28;20450;-57
2023/02/03 03:25:17;;;;;;;45.42;21.35;;;;;;;1.19;68.14;99061.75;5074798;28;20466;-54
2023/02/03 03:27:48;;;;;;;44.75;22.73;;;;;;;1.20;68.16;99063.47;5074912;28;20123;-52
2023/02/03 03:30:20;;;;;;;43.92;20.42;;;;;;;1.23;68.73;99063.31;5073860;28;20040;-54
2023/02/03 03:32:46;;;;;;;45.65;21.23;;;;;;;1.07;67.71;99030.81;5073883;28;20064;-57
2023/02/03 03:35:12;;;;;;;48.40;21.42;;;;;;;1.31;67.93;99059.41;5074413;28;20068;-56
2023/02/03 03:37:50;;;;;;;43.83;21.42;;;;;;;1.34;68.11;99061.88;5073844;28;20099;-55
2023/02/03 03:40:38;;;;;;;46.45;21.98;;;;;;;1.42;67.61;99067.56;5074487;28;20421;-55
2023/02/03 03:43:18;;;;;;;45.70;21.75;;;;;;;1.34;67.77;99062.75;5074324;28;20075;-52
2023/02/03 03:45:52;;;;;;;45.95;21.60;;;;;;;1.18;68.36;99038.13;5074509;28;20474;-54
2023/02/03 03:48:23;;;;;;;43.42;20.67;;;;;;;1.39;67.89;99057.19;5074255;28;20402;-55
2023/02/03 03:50:55;;;;;;;42.63;21.48;;;;;;;1.37;68.20;99065.22;5074160;28;20090;-57
2023/02/03 03:53:22;;;;;;;45.70;22.30;;;;;;;1.23;67.88;99036.09;5074239;28;20029;-57
2023/02/03 03:55:51;;;;;;;44.63;21.73;;;;;;;1.43;67.78;99053.44;5074219;28;20025;-54
2023/02/03 03:58:25;;;;;;;43.55;21.35;;;;;;;1.45;68.14;99062.16;5074053;28;20029;-53
2023/02/03 04:00:53;;;;;;;41.92;21.02;;;;;;;1.46;67.80;99060.34;5074283;28;20059;-57
2023/02/03 04:03:23;;;;;;;45.17;21.27;;;;;;;1.47;68.03;99060.28;5074108;28;20101;-55
2023/02/03 04:05:49;;;;;;;48.50;20.73;;;;;;;1.49;68.27;99073.38;5074612;28;20085;-56
2023/02/03 04:08:14;;;;;;;45.83;21.13;;;;;;;1.49;68.07;99076.00;5073836;28;20040;-54
2023/02/03 04:10:41;;;;;;;40.88;19.80;;;;;;;1.52;67.59;99062.63;5073865;28;20943;-55
2023/02/03 04:13:09;;;;;;;42.00;20.10;;;;;;;1.48;68.08;99061.13;5073795;28;20161;-55
2023/02/03 04:15:35;;;;;;;41.97;20.35;;;;;;;1.53;68.03;99064.34;5074054;28;20024;-54
2023/02/03 04:18:01;;;;;;;44.10;20.98;;;;;;;1.51;68.07;99056.53;5073165;28;20108;-55
2023/02/03 04:20:31;;;;;;;41.97;20.05;;;;;;;1.57;68.32;99058.81;5073407;28;20036;-57
2023/02/03 04:22:57;;;;;;;44.17;19.42;;;;;;;1.56;67.84;99069.44;5073739;28;20036;-54
2023/02/03 04:25:23;;;;;;;41.17;20.30;;;;;;;1.57;67.71;99056.19;5073547;28;20036;-54
2023/02/03 04:27:48;;;;;;;40.17;20.02;;;;;;;1.62;68.11;99060.34;5073298;28;20035;-56
2023/02/03 04:30:14;;;;;;;43.58;20.38;;;;;;;1.62;68.12;99058.56;5073679;28;20124;-54
2023/02/03 04:32:40;;;;;;;46.28;21.23;;;;;;;1.68;68.14;99063.50;5073842;28;20121;-53
2023/02/03 04:35:06;;;;;;;45.72;20.85;;;;;;;1.63;67.73;99064.69;5073673;28;20035;-54
2023/02/03 04:37:33;;;;;;;44.38;21.67;;;;;;;1.66;67.75;99064.50;5072638;28;20027;-54
2023/02/03 04:39:59;;;;;;;43.65;20.08;;;;;;;1.65;67.87;99065.44;5072556;28;20087;-57
2023/02/03 04:42:25;;;;;;;45.25;20.80;;;;;;;1.69;67.73;99070.47;5073428;28;20040;-53
2023/02/03 04:44:51;;;;;;;44.03;22.13;;;;;;;1.73;67.44;99068.53;5073601;28;20028;-58
2023/02/03 04:47:17;;;;;;;44.45;21.20;;;;;;;1.57;67.67;99039.50;5071520;28;20063;-55
2023/02/03 04:49:43;;;;;;;41.75;20.08;;;;;;;1.53;67.56;99049.38;5073140;28;20138;-52
2023/02/03 04:52:08;;;;;;;41.50;20.42;;;;;;;1.70;67.76;99063.41;5073421;28;20166;-53
2023/02/03 04:54:34;;;;;;;38.65;20.65;;;;;;;1.68;67.80;99062.63;5072895;28;20032;-54
2023/02/03 04:56:59;;;;;;;43.60;21.45;;;;;;;1.75;67.55;99064.00;5072813;28;20075;-57
2023/02/03 04:59:25;;;;;;;41.97;20.42;;;;;;;1.77;67.63;99062.13;5072983;28;20107;-53
2023/02/03 05:01:50;;;;;;;41.10;20.40;;;;;;;1.76;67.71;99062.19;5073451;28;20032;-64
2023/02/03 05:04:16;;;;;;;43.28;19.95;;;;;;;1.73;67.85;99057.97;5073415;28;20020;-56
2023/02/03 05:06:42;;;;;;;40.78;20.08;;;;;;;1.73;68.13;99060.59;5072595;28;20029;-56
2023/02/03 05:09:07;;;;;;;42.65;20.08;;;;;;;1.82;67.88;99067.16;5072115;28;20292;-52
2023/02/03 05:11:33;;;;;;;39.35;20.33;;;;;;;1.85;68.18;99069.63;5072808;28;20439;-56
2023/02/03 05:13:58;;;;;;;41.95;20.58;;;;;;;1.90;67.17;99069.34;5073104;28;20136;-55
2023/02/03 05:16:24;;;;;;;43.08;20.95;;;;;;;1.88;67.73;99072.06;5072745;28;20032;-55
2023/02/03 05:18:49;;;;;;;42.67;20.40;;;;;;;1.90;68.25;99064.91;5072410;28;20035;-58
2023/02/03 05:21:15;;;;;;;44.80;21.45;;;;;;;1.96;67.69;99067.19;5072295;28;20115;-51
2023/02/03 05:23:40;;;;;;;42.78;19.83;;;;;;;1.94;67.50;99057.69;5073081;28;20056;-56
2023/02/03 05:26:06;;;;;;;45.30;20.48;;;;;;;1.96;67.84;99061.91;5071342;28;20033;-54
2023/02/03 05:28:31;;;;;;;37.65;19.55;;;;;;;2.00;67.20;99063.44;5072142;28;20094;-55
2023/02/03 05:30:58;;;;;;;39.75;19.48;;;;;;;2.05;67.88;99073.75;5072448;28;20028;-54
2023/02/03 05:33:24;;;;;;;38.42;19.77;;;;;;;2.08;67.33;99060.38;5072209;28;20060;-57
2023/02/03 05:35:49;;;;;;;39.35;19.58;;;;;;;2.08;67.11;99064.81;5071975;28;20469;-54
2023/02/03 05:38:14;;;;;;;37.63;18.90;;;;;;;1.98;67.15;99036.28;5072119;28;20054;-56
2023/02/03 05:43:24;;;;;;;38.95;19.65;;;;;;;2.09;67.41;99061.22;5072466;28;20043;-56
2023/02/03 05:45:49;;;;;;;42.17;19.50;;;;;;;2.15;67.05;99077.53;5071781;28;20370;-55
2023/02/03 05:48:15;;;;;;;38.67;19.52;;;;;;;1.95;67.29;99039.09;5052787;28;20126;-57
2023/02/03 05:50:40;;;;;;;37.67;18.00;;;;;;;2.13;67.33;99065.38;5052119;28;20108;-57
2023/02/03 05:53:07;;;;;;;39.00;18.73;;;;;;;2.21;66.68;99070.22;5051972;28;20075;-58
2023/02/03 05:55:33;;;;;;;40.47;19.90;;;;;;;2.22;66.85;99066.66;5060631;28;20116;-59
2023/02/03 05:57:59;;;;;;;38.35;19.33;;;;;;;2.27;66.67;99069.88;5060090;28;20491;-57
2023/02/03 06:00:26;;;;;;;38.67;18.95;;;;;;;2.30;66.33;99074.97;5062101;28;20024;-53
2023/02/03 06:02:52;;;;;;;38.92;19.50;;;;;;;2.27;66.90;99067.22;5060815;28;20032;-54
2023/02/03 06:05:18;;;;;;;39.92;19.80;;;;;;;2.22;67.21;99064.84;5060152;28;20035;-52
2023/02/03 06:07:43;;;;;;;37.15;18.70;;;;;;;2.31;66.81;99075.84;5064057;28;20020;-52
2023/02/03 06:10:09;;;;;;;37.33;18.55;;;;;;;2.10;66.57;99045.28;5062064;28;20119;-53
2023/02/03 06:12:36;;;;;;;44.72;20.40;;;;;;;2.33;66.87;99080.06;5060823;28;20059;-54
2023/02/03 06:15:02;;;;;;;38.25;19.33;;;;;;;2.25;66.81;99067.31;5059605;28;20409;-57
2023/02/03 06:17:29;;;;;;;41.92;19.15;;;;;;;2.36;66.99;99074.59;5061282;28;20028;-59
2023/02/03 06:19:55;;;;;;;39.40;18.90;;;;;;;2.38;66.27;99085.91;5061460;28;20025;-57
2023/02/03 06:22:20;;;;;;;40.30;20.10;;;;;;;2.41;65.89;99062.00;5059924;28;20028;-54
2023/02/03 06:24:47;;;;;;;40.60;20.65;;;;;;;2.37;66.61;99070.19;5061173;28;20035;-55
2023/02/03 06:27:15;;;;;;;36.60;19.25;;;;;;;2.45;66.93;99089.06;5059897;28;20447;-57
2023/02/03 06:29:41;;;;;;;38.45;18.40;;;;;;;2.51;66.22;99083.41;5060311;28;20180;-56
2023/02/03 06:32:08;;;;;;;37.00;19.05;;;;;;;2.47;66.07;99076.59;5060201;28;20094;-57
2023/02/03 06:34:34;;;;;;;38.75;19.73;;;;;;;2.52;66.60;99092.19;5062395;28;20447;-57
2023/02/03 06:36:59;;;;;;;39.40;17.88;;;;;;;2.54;66.21;99083.25;5071666;28;20024;-55
2023/02/03 06:39:25;;;;;;;36.88;18.40;;;;;;;2.55;65.64;99079.66;5071702;28;20424;-63
2023/02/03 06:41:51;;;;;;;37.03;17.50;;;;;;;2.57;65.64;99082.19;5071890;28;20064;-62
2023/02/03 06:44:19;;;;;;;35.28;18.58;;;;;;;2.62;65.60;99084.56;5070811;28;20059;-61
2023/02/03 06:46:45;;;;;;;36.95;18.25;;;;;;;2.64;65.61;99085.34;5071947;28;20032;-63
2023/02/03 06:49:10;;;;;;;38.70;18.27;;;;;;;2.28;65.68;99022.22;5056637;28;20031;-62
2023/02/03 06:51:35;;;;;;;37.10;18.30;;;;;;;2.65;65.16;99084.38;5072980;28;20139;-63
2023/02/03 06:54:02;;;;;;;34.75;18.45;;;;;;;2.66;64.75;99089.59;5074905;28;20025;-63
2023/02/03 06:56:28;;;;;;;38.58;18.00;;;;;;;2.65;65.47;99079.09;5076016;28;20074;-57
2023/02/03 06:58:54;;;;;;;35.60;17.70;;;;;;;2.65;64.96;99082.63;5066623;28;20086;-54
2023/02/03 07:01:20;;;;;;;34.20;17.85;;;;;;;2.61;65.45;99078.41;5075335;28;20409;-57
2023/02/03 07:03:45;;;;;;;36.17;18.75;;;;;;;2.57;64.79;99077.78;5066411;28;20036;-54
2023/02/03 07:06:12;;;;;;;34.88;18.13;;;;;;;2.60;65.46;99081.19;5055748;28;20506;-58
2023/02/03 07:08:37;;;;;;;33.63;17.70;;;;;;;2.50;65.26;99065.00;5066002;28;20017;-57
2023/02/03 07:11:03;;;;;;;37.88;17.85;;;;;;;2.71;64.94;99084.00;5070074;28;20324;-58
2023/02/03 07:13:28;;;;;;;37.30;18.33;;;;;;;2.65;64.79;99055.31;5073878;28;20115;-58
2023/02/03 07:15:54;;;;;;;39.45;18.65;;;;;;;2.88;64.53;99072.41;5074867;28;20032;-56
2023/02/03 07:18:23;;;;;;;36.42;18.30;;;;;;;3.01;64.46;99067.22;5074417;28;20028;-55
2023/02/03 07:20:49;;;;;;;40.65;20.23;;;;;;;3.19;64.07;99078.47;5074050;28;20446;-59
2023/02/03 07:23:14;;;;;;;42.40;20.88;;;;;;;3.34;63.75;99070.50;5074479;28;20040;-55
2023/02/03 07:25:40;;;;;;;40.83;20.35;;;;;;;3.64;62.84;99074.84;5074496;28;20439;-56
2023/02/03 07:28:05;;;;;;;40.08;19.98;;;;;;;4.01;61.95;99069.78;5074384;28;20031;-54
2023/02/03 07:30:31;;;;;;;41.97;19.38;;;;;;;4.24;60.70;99072.72;5073871;28;20117;-58
2023/02/03 07:32:56;;;;;;;44.38;21.70;;;;;;;4.23;60.83;99073.66;5074639;28;20036;-56
2023/02/03 07:35:22;;;;;;;45.75;21.30;;;;;;;3.88;61.35;99052.06;5073997;28;20115;-58
2023/02/03 07:37:47;;;;;;;48.20;22.15;;;;;;;3.91;61.49;99074.00;5074408;28;20048;-57
2023/02/03 07:40:14;;;;;;;44.45;22.45;;;;;;;3.73;62.44;99082.16;5069441;28;20389;-56
2023/02/03 07:42:45;;;;;;;42.38;21.38;;;;;;;3.65;62.69;99079.19;5054436;28;20049;-55
2023/02/03 07:45:12;;;;;;;47.75;21.60;;;;;;;3.46;62.38;99085.63;5054072;28;20091;-55
2023/02/03 07:47:39;;;;;;;38.78;20.95;;;;;;;3.36;63.26;99076.56;5056935;28;20123;-59
2023/02/03 07:50:04;;;;;;;42.22;21.17;;;;;;;3.35;63.47;99077.50;5067705;28;20028;-55
2023/02/03 07:52:30;;;;;;;45.25;20.98;;;;;;;3.37;63.98;99078.25;5074593;28;20040;-55
2023/02/03 07:54:55;;;;;;;41.53;20.70;;;;;;;3.42;63.49;99073.53;5074590;28;20035;-55
2023/02/03 07:57:21;;;;;;;35.67;17.85;;;;;;;3.49;62.84;99087.22;5071600;28;20336;-60
2023/02/03 07:59:47;;;;;;;31.27;15.85;;;;;;;3.54;61.58;99078.03;5072575;28;20426;-57
2023/02/03 08:02:12;;;;;;;33.20;17.10;;;;;;;3.63;61.53;99067.84;5072920;28;20028;-53
2023/02/03 08:04:38;;;;;;;30.85;16.13;;;;;;;3.57;61.85;99072.56;5071901;28;20406;-53
2023/02/03 08:07:03;;;;;;;35.15;17.20;;;;;;;3.58;61.68;99078.72;5073226;28;20039;-51
2023/02/03 08:09:29;;;;;;;33.13;18.60;;;;;;;3.62;61.47;99079.34;5074131;28;20036;-56
2023/02/03 08:11:54;;;;;;;31.33;16.63;;;;;;;3.57;61.24;99061.13;5067396;28;20025;-57
2023/02/03 08:14:20;;;;;;;34.28;16.10;;;;;;;3.63;61.15;99060.72;5072518;28;20718;-56
2023/02/03 08:16:45;;;;;;;32.10;16.40;;;;;;;3.62;61.24;99055.53;5073308;28;20020;-55
2023/02/03 08:19:11;;;;;;;33.03;17.05;;;;;;;3.71;61.50;99068.19;5072982;28;20063;-55
2023/02/03 08:21:37;;;;;;;40.13;17.90;;;;;;;3.73;61.09;99056.53;5072831;28;20366;-53
2023/02/03 08:24:03;;;;;;;37.85;18.08;;;;;;;3.76;61.15;99055.50;5073388;28;20039;-53
2023/02/03 08:26:29;;;;;;;35.97;18.23;;;;;;;3.79;61.15;99062.41;5072966;28;20044;-56
2023/02/03 08:28:54;;;;;;;40.50;19.00;;;;;;;3.74;60.62;99057.38;5072641;28;20362;-58
2023/02/03 08:31:19;;;;;;;33.90;17.17;;;;;;;3.69;61.38;99065.63;5072065;28;20199;-55
2023/02/03 08:33:45;;;;;;;35.05;18.00;;;;;;;3.67;61.81;99058.75;5065686;28;20021;-55
2023/02/03 08:36:10;;;;;;;37.47;18.50;;;;;;;3.65;61.50;99058.81;5053780;28;20151;-54
2023/02/03 08:38:37;;;;;;;38.75;18.23;;;;;;;3.59;61.43;99057.41;5052135;28;20129;-58
2023/02/03 08:41:08;;;;;;;40.53;18.85;;;;;;;3.40;61.95;99027.81;5070400;28;20076;-55
2023/02/03 08:43:35;;;;;;;38.08;18.67;;;;;;;3.38;62.23;99030.53;5071053;28;20113;-58
2023/02/03 08:46:05;;;;;;;37.75;17.70;;;;;;;3.51;62.17;99049.13;5071867;28;20028;-58
2023/02/03 08:48:30;;;;;;;34.85;17.35;;;;;;;3.48;62.30;99057.28;5073482;28;20115;-51
2023/02/03 08:50:56;;;;;;;36.45;17.63;;;;;;;3.48;62.78;99057.28;5073353;28;20119;-55
2023/02/03 08:53:21;;;;;;;34.75;17.55;;;;;;;3.49;62.23;99058.97;5071280;28;20416;-58
2023/02/03 08:55:47;;;;;;;34.80;17.60;;;;;;;3.53;62.90;99055.16;5058106;28;20024;-55
2023/02/03 08:58:12;;;;;;;35.80;18.83;;;;;;;3.59;62.27;99049.47;5072910;28;20028;-58
2023/02/03 09:00:37;;;;;;;38.55;18.52;;;;;;;3.63;62.31;99051.97;5057486;28;20033;-56
2023/02/03 09:03:03;;;;;;;33.35;17.35;;;;;;;3.63;62.42;99051.97;5053100;28;20048;-58
2023/02/03 09:05:29;;;;;;;37.25;19.08;;;;;;;3.66;62.63;99054.41;5066908;28;20181;-56
2023/02/03 09:07:55;;;;;;;36.53;18.77;;;;;;;3.63;62.38;99050.13;5072671;28;20033;-53
2023/02/03 09:10:20;;;;;;;42.33;19.95;;;;;;;3.61;62.79;99051.19;5065396;28;20520;-50
2023/02/03 09:12:46;;;;;;;33.88;18.05;;;;;;;3.64;63.13;99056.28;5052976;28;20119;-52
2023/02/03 09:15:11;;;;;;;36.78;19.25;;;;;;;3.67;63.02;99054.28;5054752;28;20043;-53
2023/02/03 09:17:36;;;;;;;38.33;19.52;;;;;;;3.68;62.62;99049.84;5065165;28;20025;-53
2023/02/03 09:20:02;;;;;;;35.70;19.08;;;;;;;3.64;63.04;99051.00;5054837;28;20444;-58
2023/02/03 09:22:29;;;;;;;35.40;16.92;;;;;;;3.62;63.03;99045.78;5065209;28;20066;-52
2023/02/03 09:24:55;;;;;;;36.90;17.83;;;;;;;3.55;62.56;99047.97;5070054;28;20389;-54
2023/02/03 09:27:20;;;;;;;36.10;18.20;;;;;;;3.51;63.11;99045.66;5072264;28;20028;-55
2023/02/03 09:29:46;;;;;;;38.42;19.08;;;;;;;3.52;63.27;99052.63;5071916;28;20421;-54
2023/02/03 09:32:11;;;;;;;36.85;19.02;;;;;;;3.55;63.31;99050.63;5072201;28;20030;-55
2023/02/03 09:34:38;;;;;;;34.72;17.83;;;;;;;3.68;63.56;99050.69;5054405;28;20463;-55
2023/02/03 09:37:04;;;;;;;33.28;17.70;;;;;;;3.77;62.86;99048.41;5071613;28;20032;-56
2023/02/03 09:39:30;;;;;;;30.60;17.33;;;;;;;3.94;62.35;99044.66;5072306;28;20032;-53
2023/02/03 09:42:01;;;;;;;32.00;17.35;;;;;;;4.18;61.65;99041.34;5072158;28;20047;-53
2023/02/03 09:44:39;;;;;;;31.15;17.33;;;;;;;4.33;61.33;99039.44;5072974;28;20028;-58
2023/02/03 09:47:16;;;;;;;32.08;16.13;;;;;;;4.52;60.91;99047.00;5072261;28;20078;-58
2023/02/03 09:49:49;;;;;;;32.95;17.23;;;;;;;4.55;59.75;99039.69;5070649;28;20035;-56
2023/02/03 09:52:27;;;;;;;29.75;16.50;;;;;;;4.37;60.88;99036.50;5072392;28;20043;-56
2023/02/03 09:55:08;;;;;;;31.13;16.70;;;;;;;4.37;61.07;99033.84;5072282;28;20032;-56
2023/02/03 09:57:44;;;;;;;25.52;14.20;;;;;;;4.58;60.27;99043.91;5071002;28;20371;-57
2023/02/03 10:00:26;;;;;;;26.75;15.00;;;;;;;4.62;60.87;99050.72;5071396;28;20032;-56
2023/02/03 10:02:55;;;;;;;26.67;15.02;;;;;;;4.52;60.39;99042.56;5070714;28;20776;-53
2023/02/03 10:05:40;;;;;;;28.27;15.98;;;;;;;4.49;60.78;99047.22;5069851;28;20037;-57
2023/02/03 10:08:44;;;;;;;28.73;15.50;;;;;;;4.61;61.03;99038.44;5070279;28;20033;-58
2023/02/03 10:11:34;;;;;;;27.58;14.65;;;;;;;4.65;60.61;99042.56;5066221;28;20044;-51
2023/02/03 10:14:21;;;;;;;28.67;15.35;;;;;;;4.49;59.90;99040.13;5062267;28;20431;-52
2023/02/03 10:16:55;;;;;;;29.95;15.27;;;;;;;4.37;60.79;99038.28;5061541;28;20040;-54
2023/02/03 10:19:30;;;;;;;28.48;15.02;;;;;;;4.32;61.24;99049.19;5071295;28;20490;-56
2023/02/03 10:21:58;;;;;;;26.23;14.73;;;;;;;4.28;60.96;99037.09;5067993;28;20029;-58
2023/02/03 10:24:39;;;;;;;27.63;15.43;;;;;;;4.27;61.39;99035.41;5052333;28;20041;-55
2023/02/03 10:27:08;;;;;;;24.17;14.40;;;;;;;4.06;61.62;99038.53;5053892;28;20052;-57
2023/02/03 10:29:41;;;;;;;26.67;14.80;;;;;;;4.06;61.90;99041.19;5055989;28;20029;-56
2023/02/03 10:32:13;;;;;;;23.27;13.43;;;;;;;4.13;61.57;99042.50;5055904;28;20040;-56
2023/02/03 10:34:46;;;;;;;29.17;15.32;;;;;;;4.13;61.28;99037.19;5063673;28;20029;-57
2023/02/03 10:37:37;;;;;;;24.30;13.80;;;;;;;4.29;61.23;99041.44;5055994;28;20037;-54
2023/02/03 10:40:03;;;;;;;31.92;14.20;;;;;;;4.29;60.78;99030.84;5056363;28;20061;-59
2023/02/03 10:43:46;;;;;;;27.30;15.43;;;;;;;4.29;60.72;99025.53;5054794;28;20463;-54
2023/02/03 10:45:17;;;;;;;23.02;13.68;;;;;;;4.31;60.49;99029.81;5054984;28;20367;-56
2023/02/03 10:47:50;;;;;;;22.10;13.82;;;;;;;4.33;60.45;99028.84;5059126;28;20036;-65
2023/02/03 10:50:22;;;;;;;23.95;13.65;;;;;;;4.25;60.60;99032.00;5057682;28;20071;-58
2023/02/03 10:52:47;;;;;;;25.65;14.15;;;;;;;4.18;60.76;99028.09;5061662;28;20063;-56
2023/02/03 10:55:25;;;;;;;23.13;14.10;;;;;;;4.27;61.53;99027.44;5063148;28;20173;-58
2023/02/03 10:57:52;;;;;;;22.90;13.15;;;;;;;4.18;60.43;99030.72;5075599;28;20043;-56
2023/02/03 11:00:17;;;;;;;25.50;13.13;;;;;;;4.10;61.49;99018.84;5075069;28;20060;-52
2023/02/03 11:02:43;;;;;;;25.08;13.95;;;;;;;3.93;62.03;99016.47;5066050;28;20129;-53
2023/02/03 11:05:23;;;;;;;23.77;13.60;;;;;;;3.86;62.63;99019.53;5072407;28;20123;-55
2023/02/03 11:07:49;;;;;;;25.50;14.45;;;;;;;3.80;63.25;99022.56;5075339;28;20066;-54
2023/02/03 11:10:39;;;;;;;26.33;15.15;;;;;;;3.92;63.24;99026.19;5074819;28;20040;-55
2023/02/03 11:13:25;;;;;;;28.65;14.85;;;;;;;3.95;62.96;99012.75;5074049;28;20025;-63
2023/02/03 11:15:58;;;;;;;23.75;13.98;;;;;;;3.96;63.13;99021.56;5073270;28;20546;-58
2023/02/03 11:18:41;;;;;;;25.50;13.85;;;;;;;4.16;62.11;99022.88;5073700;28;20404;-56
2023/02/03 11:21:28;;;;;;;23.90;13.70;;;;;;;4.19;62.08;99008.59;5067836;28;20044;-58
2023/02/03 11:23:56;;;;;;;25.63;13.90;;;;;;;4.15;60.77;99019.41;5074048;28;20024;-58
2023/02/03 11:26:27;;;;;;;22.30;13.15;;;;;;;4.07;61.39;99010.25;5074185;28;20455;-56
2023/02/03 11:28:56;;;;;;;23.50;14.25;;;;;;;4.18;60.87;99010.38;5073756;28;20033;-58
2023/02/03 11:31:45;;;;;;;25.67;13.75;;;;;;;4.18;60.89;99010.38;5073863;28;20040;-56
2023/02/03 11:34:29;;;;;;;25.05;13.18;;;;;;;4.34;61.29;99004.91;5072518;28;20347;-56
2023/02/03 11:36:55;;;;;;;23.67;13.43;;;;;;;4.30;60.08;99004.25;5074167;28;20503;-56